createdAt,value
2017-10-16T00:00:00.047Z,10.90
2017-10-16T00:02:27.790Z,10.90
2017-10-16T00:04:55.548Z,10.90
2017-10-16T00:07:23.286Z,11.00
2017-10-16T00:09:50.932Z,11.00
2017-10-16T00:12:18.588Z,11.00
2017-10-16T00:14:46.323Z,11.00
2017-10-16T00:17:14.069Z,11.10
2017-10-16T00:19:41.816Z,11.10
2017-10-16T00:22:09.516Z,11.10
2017-10-16T00:24:37.235Z,11.10
2017-10-16T00:27:05.368Z,11.10
2017-10-16T00:29:33.318Z,11.10
2017-10-16T00:32:01.068Z,11.20
2017-10-16T00:34:28.767Z,11.20
2017-10-16T00:36:56.583Z,11.20
2017-10-16T00:39:24.680Z,11.20
2017-10-16T00:41:52.363Z,11.20
2017-10-16T00:44:20.213Z,11.20
2017-10-16T00:46:47.960Z,11.10
2017-10-16T00:49:15.611Z,11.10
2017-10-16T00:51:43.335Z,11.00
2017-10-16T00:54:11.099Z,11.10
2017-10-16T00:56:38.819Z,11.10
2017-10-16T00:59:06.609Z,11.00
2017-10-16T01:01:34.321Z,11.00
2017-10-16T01:04:01.999Z,11.00
2017-10-16T01:06:29.718Z,11.00
2017-10-16T01:08:57.380Z,11.00
2017-10-16T01:11:25.324Z,10.90
2017-10-16T01:13:53.059Z,11.00
2017-10-16T01:16:20.827Z,10.90
2017-10-16T01:18:48.575Z,10.90
2017-10-16T01:21:16.321Z,10.90
2017-10-16T01:23:44.043Z,10.90
2017-10-16T01:26:11.815Z,10.80
2017-10-16T01:28:39.615Z,10.80
2017-10-16T01:31:07.314Z,10.80
2017-10-16T01:33:35.035Z,10.80
2017-10-16T01:36:02.909Z,10.80
2017-10-16T01:38:30.628Z,10.80
2017-10-16T01:40:58.403Z,10.80
2017-10-16T01:43:26.183Z,10.90
2017-10-16T01:45:54.274Z,10.90
2017-10-16T01:48:22.055Z,10.90
2017-10-16T01:50:49.904Z,10.90
2017-10-16T01:53:17.636Z,10.80
2017-10-16T01:55:45.360Z,10.80
2017-10-16T01:58:13.351Z,10.80
2017-10-16T02:00:41.098Z,10.80
2017-10-16T02:03:08.751Z,10.80
2017-10-16T02:05:36.490Z,10.80
2017-10-16T02:08:04.210Z,10.80
2017-10-16T02:10:31.984Z,10.70
2017-10-16T02:12:59.699Z,10.70
2017-10-16T02:15:27.378Z,10.60
2017-10-16T02:17:55.127Z,10.60
2017-10-16T02:20:22.848Z,10.60
2017-10-16T02:22:50.519Z,10.50
2017-10-16T02:25:18.168Z,10.50
2017-10-16T02:27:45.946Z,10.50
2017-10-16T02:30:14.067Z,10.60
2017-10-16T02:32:41.715Z,10.60
2017-10-16T02:35:09.459Z,10.60
2017-10-16T02:37:37.207Z,10.50
2017-10-16T02:40:04.885Z,10.50
2017-10-16T02:42:33.111Z,10.40
2017-10-16T02:45:00.758Z,10.40
2017-10-16T02:47:28.402Z,10.40
2017-10-16T02:49:56.153Z,10.40
2017-10-16T02:52:23.808Z,10.40
2017-10-16T02:54:51.542Z,10.40
2017-10-16T02:57:19.289Z,10.30
2017-10-16T02:59:46.940Z,10.20
2017-10-16T03:02:14.681Z,10.20
2017-10-16T03:04:42.429Z,10.10
2017-10-16T03:07:10.176Z,10.10
2017-10-16T03:09:37.922Z,10.10
2017-10-16T03:12:05.675Z,10.10
2017-10-16T03:14:33.333Z,10.10
2017-10-16T03:17:01.475Z,10.20
2017-10-16T03:19:29.221Z,10.20
2017-10-16T03:21:56.875Z,10.20
2017-10-16T03:24:24.521Z,10.20
2017-10-16T03:26:52.324Z,10.10
2017-10-16T03:29:20.109Z,10.10
2017-10-16T03:31:47.798Z,10.10
2017-10-16T03:34:15.499Z,10.10
2017-10-16T03:36:43.249Z,10.10
2017-10-16T03:39:10.995Z,10.10
2017-10-16T03:41:38.742Z,10.00
2017-10-16T03:44:06.399Z,10.10
2017-10-16T03:46:34.134Z,10.00
2017-10-16T03:49:01.982Z,10.00
2017-10-16T03:51:29.733Z,10.00
2017-10-16T03:53:57.480Z,10.00
2017-10-16T03:56:25.291Z,10.00
2017-10-16T03:58:52.935Z,10.00
2017-10-16T04:01:20.619Z,10.00
2017-10-16T04:03:48.319Z,10.00
2017-10-16T04:06:16.011Z,10.00
2017-10-16T04:08:43.659Z,10.00
2017-10-16T04:11:11.368Z,10.00
2017-10-16T04:13:39.033Z,10.00
2017-10-16T04:16:06.711Z,9.80
2017-10-16T04:18:35.054Z,9.60
2017-10-16T04:21:02.906Z,9.60
2017-10-16T04:23:30.656Z,9.60
2017-10-16T04:25:58.475Z,9.60
2017-10-16T04:28:26.148Z,9.60
2017-10-16T04:30:53.896Z,9.70
2017-10-16T04:33:21.727Z,9.70
2017-10-16T04:35:49.492Z,9.70
2017-10-16T04:38:17.240Z,9.70
2017-10-16T04:40:44.988Z,9.60
2017-10-16T04:43:12.734Z,9.60
2017-10-16T04:45:40.482Z,9.60
2017-10-16T04:48:08.228Z,9.60
2017-10-16T04:50:35.909Z,9.60
2017-10-16T04:53:03.994Z,9.50
2017-10-16T04:55:31.886Z,9.50
2017-10-16T04:57:59.675Z,9.50
2017-10-16T05:00:27.377Z,9.60
2017-10-16T05:02:55.078Z,9.60
2017-10-16T05:05:22.769Z,9.70
2017-10-16T05:07:50.516Z,9.70
2017-10-16T05:10:18.275Z,9.70
2017-10-16T05:12:46.011Z,9.70
2017-10-16T05:15:13.816Z,9.60
2017-10-16T05:17:41.607Z,9.60
2017-10-16T05:20:09.359Z,9.50
2017-10-16T05:22:37.101Z,9.50
2017-10-16T05:25:05.053Z,9.40
2017-10-16T05:27:32.710Z,9.50
2017-10-16T05:30:00.364Z,9.40
2017-10-16T05:32:28.462Z,9.30
2017-10-16T05:34:56.147Z,9.30
2017-10-16T05:37:23.894Z,9.30
2017-10-16T05:39:51.600Z,9.30
2017-10-16T05:42:19.295Z,9.30
2017-10-16T05:44:46.988Z,9.20
2017-10-16T05:47:14.791Z,9.30
2017-10-16T05:49:42.527Z,9.30
2017-10-16T05:52:10.275Z,9.30
2017-10-16T05:54:38.029Z,9.30
2017-10-16T05:57:05.769Z,9.30
2017-10-16T05:59:33.519Z,9.20
2017-10-16T06:02:01.247Z,9.30
2017-10-16T06:04:28.914Z,9.30
2017-10-16T06:06:56.667Z,9.40
2017-10-16T06:09:24.456Z,9.40
2017-10-16T06:11:52.176Z,9.40
2017-10-16T06:14:20.251Z,9.50
2017-10-16T06:16:48.058Z,9.60
2017-10-16T06:19:15.806Z,9.60
2017-10-16T06:21:43.507Z,9.80
2017-10-16T06:24:11.298Z,9.90
2017-10-16T06:26:39.045Z,10.00
2017-10-16T06:29:06.744Z,10.20
2017-10-16T06:31:34.523Z,10.30
2017-10-16T06:34:02.238Z,10.50
2017-10-16T06:36:30.038Z,10.60
2017-10-16T06:38:57.788Z,10.70
2017-10-16T06:41:25.459Z,10.80
2017-10-16T06:43:53.176Z,11.00
2017-10-16T06:46:20.964Z,11.20
2017-10-16T06:48:48.635Z,11.30
2017-10-16T06:51:16.418Z,11.50
2017-10-16T06:53:44.126Z,11.70
2017-10-16T06:56:11.771Z,11.80
2017-10-16T06:58:39.431Z,11.90
2017-10-16T07:01:07.201Z,12.10
2017-10-16T07:03:35.053Z,12.30
2017-10-16T07:06:02.798Z,12.60
2017-10-16T07:08:30.651Z,12.80
2017-10-16T07:10:58.351Z,13.00
2017-10-16T07:13:26.011Z,13.20
2017-10-16T07:15:53.818Z,13.50
2017-10-16T07:18:21.947Z,14.00
2017-10-16T07:20:49.694Z,14.00
2017-10-16T07:23:17.402Z,14.30
2017-10-16T07:25:45.095Z,14.50
2017-10-16T07:28:12.752Z,14.60
2017-10-16T07:30:40.581Z,14.80
2017-10-16T07:33:08.350Z,15.10
2017-10-16T07:35:36.472Z,15.40
2017-10-16T07:38:04.334Z,15.50
2017-10-16T07:40:32.040Z,15.60
2017-10-16T07:42:59.750Z,15.90
2017-10-16T07:45:27.900Z,16.30
2017-10-16T07:47:55.633Z,16.30
2017-10-16T07:50:23.379Z,16.30
2017-10-16T07:52:51.143Z,16.40
2017-10-16T07:55:18.795Z,16.60
2017-10-16T07:57:46.928Z,17.00
2017-10-16T08:00:14.759Z,17.00
2017-10-16T08:02:42.415Z,17.20
2017-10-16T08:05:10.066Z,17.20
2017-10-16T08:07:37.781Z,17.30
2017-10-16T08:10:05.451Z,17.40
2017-10-16T08:12:33.207Z,17.40
2017-10-16T08:15:00.965Z,17.40
2017-10-16T08:17:28.704Z,17.50
2017-10-16T08:19:56.400Z,17.70
2017-10-16T08:22:24.197Z,17.70
2017-10-16T08:24:51.904Z,17.80
2017-10-16T08:27:19.635Z,17.90
2017-10-16T08:29:47.423Z,18.10
2017-10-16T08:32:15.188Z,18.10
2017-10-16T08:34:42.919Z,18.20
2017-10-16T08:37:10.755Z,18.40
2017-10-16T08:39:38.531Z,18.50
2017-10-16T08:42:06.278Z,18.70
2017-10-16T08:44:34.092Z,18.90
2017-10-16T08:47:01.877Z,19.10
2017-10-16T08:49:29.603Z,19.20
2017-10-16T08:51:57.476Z,19.30
2017-10-16T08:54:25.208Z,19.40
2017-10-16T08:56:52.947Z,19.50
2017-10-16T08:59:20.921Z,19.60
2017-10-16T09:01:48.644Z,19.70
2017-10-16T09:04:16.416Z,19.80
2017-10-16T09:06:44.470Z,19.80
2017-10-16T09:09:12.216Z,19.70
2017-10-16T09:11:39.935Z,19.70
2017-10-16T09:14:07.916Z,19.70
2017-10-16T09:16:35.868Z,19.80
2017-10-16T09:19:03.609Z,19.90
2017-10-16T09:21:31.468Z,20.00
2017-10-16T09:23:59.193Z,20.10
2017-10-16T09:26:26.963Z,20.30
2017-10-16T09:28:54.764Z,20.40
2017-10-16T09:31:22.488Z,20.40
2017-10-16T09:33:50.714Z,20.50
2017-10-16T09:36:18.503Z,20.50
2017-10-16T09:38:46.419Z,20.50
2017-10-16T09:41:14.151Z,20.60
2017-10-16T09:43:42.027Z,20.70
2017-10-16T09:46:09.759Z,20.70
2017-10-16T09:48:37.483Z,20.70
2017-10-16T09:51:05.460Z,20.90
2017-10-16T09:53:33.187Z,20.90
2017-10-16T09:56:01.005Z,21.00
2017-10-16T09:58:28.834Z,21.00
2017-10-16T10:00:56.960Z,21.00
2017-10-16T10:03:24.747Z,21.00
2017-10-16T10:05:53.173Z,21.00
2017-10-16T10:08:20.918Z,21.00
2017-10-16T10:10:48.647Z,21.00
2017-10-16T10:13:16.440Z,21.00
2017-10-16T10:15:44.497Z,21.00
2017-10-16T10:18:12.554Z,21.10
2017-10-16T10:20:40.298Z,21.10
2017-10-16T10:23:08.424Z,21.30
2017-10-16T10:25:36.133Z,21.30
2017-10-16T10:28:04.024Z,21.30
2017-10-16T10:30:31.775Z,21.10
2017-10-16T10:32:59.520Z,21.10
2017-10-16T10:35:27.256Z,21.10
2017-10-16T10:37:54.912Z,21.10
2017-10-16T10:40:22.662Z,21.20
2017-10-16T10:42:50.509Z,21.30
2017-10-16T10:45:18.260Z,21.40
2017-10-16T10:47:46.002Z,21.60
2017-10-16T10:50:13.852Z,21.70
2017-10-16T10:52:41.533Z,21.80
2017-10-16T10:55:09.607Z,21.90
2017-10-16T10:57:37.327Z,21.90
2017-10-16T11:00:05.558Z,22.00
2017-10-16T11:02:33.715Z,22.10
2017-10-16T11:05:01.568Z,22.20
2017-10-16T11:07:29.266Z,22.20
2017-10-16T11:09:56.958Z,22.30
2017-10-16T11:12:24.727Z,22.40
2017-10-16T11:14:52.556Z,22.40
2017-10-16T11:17:20.274Z,22.50
2017-10-16T11:19:48.153Z,22.70
2017-10-16T11:22:15.899Z,22.80
2017-10-16T11:24:43.607Z,22.80
2017-10-16T11:27:11.464Z,22.90
2017-10-16T11:29:39.346Z,22.80
2017-10-16T11:32:07.056Z,23.00
2017-10-16T11:34:34.839Z,23.10
2017-10-16T11:37:02.588Z,23.30
2017-10-16T11:39:30.302Z,23.40
2017-10-16T11:41:58.084Z,23.50
2017-10-16T11:44:25.780Z,23.60
2017-10-16T11:46:53.579Z,23.60
2017-10-16T11:49:21.428Z,23.80
2017-10-16T11:51:49.134Z,23.90
2017-10-16T11:54:16.922Z,24.00
2017-10-16T11:56:44.699Z,24.00
2017-10-16T11:59:12.806Z,24.10
2017-10-16T12:01:40.574Z,24.10
2017-10-16T12:04:08.360Z,24.20
2017-10-16T12:06:36.580Z,24.50
2017-10-16T12:09:04.365Z,24.50
2017-10-16T12:11:32.586Z,24.40
2017-10-16T12:14:00.312Z,24.40
2017-10-16T12:16:28.084Z,24.40
2017-10-16T12:18:55.933Z,24.20
2017-10-16T12:21:23.681Z,24.10
2017-10-16T12:23:51.406Z,24.30
2017-10-16T12:26:19.380Z,24.40
2017-10-16T12:28:47.108Z,24.60
2017-10-16T12:31:14.832Z,24.70
2017-10-16T12:33:42.619Z,24.80
2017-10-16T12:36:10.335Z,25.00
2017-10-16T12:38:38.115Z,25.10
2017-10-16T12:41:05.965Z,25.00
2017-10-16T12:43:33.717Z,25.10
2017-10-16T12:46:01.443Z,25.20
2017-10-16T12:48:29.414Z,25.40
2017-10-16T12:50:57.264Z,25.10
2017-10-16T12:53:24.996Z,24.70
2017-10-16T12:55:53.270Z,24.80
2017-10-16T12:58:21.127Z,24.80
2017-10-16T13:00:48.900Z,25.00
2017-10-16T13:03:17.126Z,25.30
2017-10-16T13:05:44.887Z,25.30
2017-10-16T13:08:12.620Z,25.40
2017-10-16T13:10:40.391Z,25.20
2017-10-16T13:13:08.525Z,25.50
2017-10-16T13:15:36.308Z,25.50
2017-10-16T13:18:04.196Z,25.60
2017-10-16T13:20:31.915Z,25.50
2017-10-16T13:22:59.660Z,25.60
2017-10-16T13:25:27.842Z,25.50
2017-10-16T13:27:55.626Z,25.50
2017-10-16T13:30:23.339Z,25.50
2017-10-16T13:32:51.221Z,25.40
2017-10-16T13:35:18.948Z,25.20
2017-10-16T13:37:46.716Z,25.30
2017-10-16T13:40:14.667Z,25.50
2017-10-16T13:42:42.382Z,25.50
2017-10-16T13:45:10.161Z,25.50
2017-10-16T13:47:38.113Z,25.60
2017-10-16T13:50:05.843Z,25.60
2017-10-16T13:52:33.567Z,25.50
2017-10-16T13:55:01.343Z,25.40
2017-10-16T13:57:29.071Z,25.50
2017-10-16T13:59:56.800Z,25.50
2017-10-16T14:02:24.600Z,25.30
2017-10-16T14:04:52.320Z,25.10
2017-10-16T14:07:21.015Z,25.20
2017-10-16T14:09:48.967Z,25.20
2017-10-16T14:12:16.717Z,25.30
2017-10-16T14:14:44.468Z,25.20
2017-10-16T14:17:12.311Z,24.90
2017-10-16T14:19:40.058Z,24.70
2017-10-16T14:22:07.780Z,24.80
2017-10-16T14:24:35.654Z,24.90
2017-10-16T14:27:03.376Z,25.00
2017-10-16T14:29:31.095Z,25.10
2017-10-16T14:31:58.880Z,25.10
2017-10-16T14:34:26.646Z,25.10
2017-10-16T14:36:54.372Z,25.10
2017-10-16T14:39:22.236Z,25.00
2017-10-16T14:41:49.969Z,24.80
2017-10-16T14:44:17.691Z,24.80
2017-10-16T14:46:45.799Z,24.60
2017-10-16T14:49:13.574Z,24.40
2017-10-16T14:51:41.797Z,24.40
2017-10-16T14:54:09.684Z,24.40
2017-10-16T14:56:37.906Z,24.30
2017-10-16T14:59:05.654Z,24.30
2017-10-16T15:01:33.536Z,24.20
2017-10-16T15:04:01.765Z,24.00
2017-10-16T15:06:29.821Z,24.00
2017-10-16T15:08:57.670Z,23.70
2017-10-16T15:11:25.405Z,23.50
2017-10-16T15:13:53.164Z,23.30
2017-10-16T15:16:20.939Z,23.10
2017-10-16T15:18:49.071Z,22.50
2017-10-16T15:21:16.814Z,22.60
2017-10-16T15:23:44.767Z,22.20
2017-10-16T15:26:12.479Z,22.00
2017-10-16T15:28:40.262Z,21.80
2017-10-16T15:31:08.213Z,21.60
2017-10-16T15:33:35.922Z,21.40
2017-10-16T15:36:03.644Z,21.30
2017-10-16T15:38:31.801Z,21.00
2017-10-16T15:40:59.964Z,20.90
2017-10-16T15:43:27.773Z,20.90
2017-10-16T15:45:55.560Z,20.90
2017-10-16T15:48:23.368Z,20.70
2017-10-16T15:50:51.114Z,20.70
2017-10-16T15:53:18.939Z,20.60
2017-10-16T15:55:46.713Z,20.50
2017-10-16T15:58:14.456Z,20.40
2017-10-16T16:00:42.331Z,20.30
2017-10-16T16:03:10.048Z,20.20
2017-10-16T16:05:37.804Z,20.10
2017-10-16T16:08:05.653Z,20.00
2017-10-16T16:10:33.400Z,19.80
2017-10-16T16:13:01.127Z,19.70
2017-10-16T16:15:28.976Z,19.60
2017-10-16T16:17:56.748Z,19.50
2017-10-16T16:20:24.471Z,19.40
2017-10-16T16:22:52.271Z,19.20
2017-10-16T16:25:20.403Z,19.00
2017-10-16T16:27:48.144Z,19.00
2017-10-16T16:30:15.994Z,19.00
2017-10-16T16:32:43.740Z,18.90
2017-10-16T16:35:11.489Z,18.70
2017-10-16T16:37:39.431Z,18.70
2017-10-16T16:40:07.292Z,18.60
2017-10-16T16:42:35.140Z,18.50
2017-10-16T16:45:03.196Z,18.50
2017-10-16T16:47:30.872Z,18.40
2017-10-16T16:49:58.999Z,18.20
2017-10-16T16:52:26.741Z,18.20
2017-10-16T16:54:54.494Z,18.10
2017-10-16T16:57:22.299Z,18.10
2017-10-16T16:59:51.525Z,18.00
2017-10-16T17:02:19.219Z,17.90
2017-10-16T17:04:46.874Z,17.90
2017-10-16T17:07:14.867Z,17.80
2017-10-16T17:09:42.560Z,17.80
2017-10-16T17:12:10.269Z,17.70
2017-10-16T17:14:38.308Z,17.70
2017-10-16T17:17:06.008Z,17.60
2017-10-16T17:19:33.704Z,17.60
2017-10-16T17:22:01.559Z,17.50
2017-10-16T17:24:29.306Z,17.40
2017-10-16T17:26:56.996Z,17.40
2017-10-16T17:29:24.902Z,17.30
2017-10-16T17:31:52.645Z,17.20
2017-10-16T17:34:20.397Z,17.20
2017-10-16T17:36:48.349Z,17.10
2017-10-16T17:39:16.095Z,17.10
2017-10-16T17:41:43.851Z,17.00
2017-10-16T17:44:11.796Z,16.90
2017-10-16T17:46:39.458Z,16.80
2017-10-16T17:49:07.171Z,16.70
2017-10-16T17:51:35.039Z,16.60
2017-10-16T17:54:02.785Z,16.60
2017-10-16T17:56:30.534Z,16.50
2017-10-16T17:58:58.385Z,16.40
2017-10-16T18:01:26.131Z,16.40
2017-10-16T18:03:53.986Z,16.30
2017-10-16T18:06:22.138Z,16.30
2017-10-16T18:08:49.816Z,16.20
2017-10-16T18:11:17.868Z,16.10
2017-10-16T18:13:46.008Z,15.90
2017-10-16T18:16:13.712Z,15.90
2017-10-16T18:18:41.488Z,15.80
2017-10-16T18:21:09.251Z,15.70
2017-10-16T18:23:36.938Z,15.70
2017-10-16T18:26:04.626Z,15.60
2017-10-16T18:28:32.476Z,15.50
2017-10-16T18:31:00.183Z,15.50
2017-10-16T18:33:27.974Z,15.50
2017-10-16T18:35:55.728Z,15.50
2017-10-16T18:38:23.396Z,15.50
2017-10-16T18:40:51.468Z,15.50
2017-10-16T18:43:19.204Z,15.50
2017-10-16T18:45:47.324Z,15.40
2017-10-16T18:48:15.071Z,15.40
2017-10-16T18:50:42.827Z,15.40
2017-10-16T18:53:10.520Z,15.30
2017-10-16T18:55:38.313Z,15.30
2017-10-16T18:58:06.165Z,15.20
2017-10-16T19:00:33.912Z,15.10
2017-10-16T19:03:01.612Z,15.10
2017-10-16T19:05:29.408Z,15.00
2017-10-16T19:07:57.235Z,15.00
2017-10-16T19:10:24.963Z,15.00
2017-10-16T19:12:52.855Z,14.90
2017-10-16T19:15:20.601Z,14.90
2017-10-16T19:17:48.328Z,15.00
2017-10-16T19:20:16.143Z,15.00
2017-10-16T19:22:43.944Z,15.00
2017-10-16T19:25:12.101Z,14.80
2017-10-16T19:27:40.468Z,14.60
2017-10-16T19:30:08.746Z,14.30
2017-10-16T19:32:36.977Z,14.30
2017-10-16T19:35:04.833Z,14.30
2017-10-16T19:37:32.996Z,14.20
2017-10-16T19:40:00.728Z,14.20
2017-10-16T19:42:28.582Z,14.20
2017-10-16T19:44:56.847Z,14.20
2017-10-16T19:47:24.593Z,14.20
2017-10-16T19:49:52.443Z,14.20
2017-10-16T19:52:20.211Z,14.10
2017-10-16T19:54:49.385Z,14.10
2017-10-16T19:57:17.323Z,14.10
2017-10-16T19:59:45.070Z,14.00
2017-10-16T20:02:12.792Z,14.00
2017-10-16T20:04:40.769Z,14.00
2017-10-16T20:07:08.618Z,14.00
2017-10-16T20:09:36.366Z,14.00
2017-10-16T20:12:04.317Z,14.10
2017-10-16T20:14:32.086Z,14.10
2017-10-16T20:17:00.078Z,14.00
2017-10-16T20:19:27.908Z,13.90
2017-10-16T20:21:55.632Z,13.90
2017-10-16T20:24:23.466Z,13.90
2017-10-16T20:26:51.316Z,13.70
2017-10-16T20:29:19.064Z,13.70
2017-10-16T20:31:46.912Z,13.70
2017-10-16T20:34:14.712Z,13.70
2017-10-16T20:36:42.468Z,13.60
2017-10-16T20:39:10.256Z,13.60
2017-10-16T20:41:38.047Z,13.70
2017-10-16T20:44:06.167Z,13.50
2017-10-16T20:46:34.010Z,13.50
2017-10-16T20:49:01.962Z,13.50
2017-10-16T20:51:29.926Z,13.50
2017-10-16T20:53:57.902Z,13.50
2017-10-16T20:56:25.818Z,13.30
2017-10-16T20:58:53.567Z,13.20
2017-10-16T21:01:21.308Z,13.10
2017-10-16T21:03:49.039Z,13.20
2017-10-16T21:06:16.853Z,13.20
2017-10-16T21:08:44.658Z,13.20
2017-10-16T21:11:12.514Z,13.10
2017-10-16T21:13:40.357Z,13.10
2017-10-16T21:16:08.104Z,13.10
2017-10-16T21:18:35.954Z,13.00
2017-10-16T21:21:03.692Z,13.00
2017-10-16T21:23:31.416Z,12.80
2017-10-16T21:25:59.215Z,12.80
2017-10-16T21:28:27.355Z,12.90
2017-10-16T21:30:55.101Z,13.00
2017-10-16T21:33:23.070Z,12.90
2017-10-16T21:35:50.903Z,12.90
2017-10-16T21:38:18.654Z,12.90
2017-10-16T21:40:46.432Z,12.90
2017-10-16T21:43:14.247Z,12.90
2017-10-16T21:45:41.994Z,12.90
2017-10-16T21:48:09.845Z,12.90
2017-10-16T21:50:37.693Z,12.90
2017-10-16T21:53:05.441Z,12.80
2017-10-16T21:55:33.392Z,12.70
2017-10-16T21:58:01.143Z,12.70
2017-10-16T22:00:28.890Z,12.60
2017-10-16T22:02:56.659Z,12.60
2017-10-16T22:05:24.794Z,12.40
2017-10-16T22:07:52.541Z,12.40
2017-10-16T22:10:20.594Z,12.30
2017-10-16T22:12:48.343Z,12.20
2017-10-16T22:15:16.033Z,12.20
2017-10-16T22:17:43.939Z,12.10
2017-10-16T22:20:11.788Z,12.10
2017-10-16T22:22:39.520Z,12.00
2017-10-16T22:25:07.591Z,12.00
2017-10-16T22:27:35.338Z,11.90
2017-10-16T22:30:03.085Z,11.80
2017-10-16T22:32:30.937Z,11.70
2017-10-16T22:34:58.787Z,11.80
2017-10-16T22:37:26.512Z,11.80
2017-10-16T22:39:54.300Z,11.80
2017-10-16T22:42:22.029Z,11.70
2017-10-16T22:44:49.878Z,11.70
2017-10-16T22:47:38.220Z,11.70
2017-10-16T22:50:06.054Z,11.70
2017-10-16T22:52:33.784Z,11.70
2017-10-16T22:55:01.575Z,11.70
2017-10-16T22:57:29.708Z,11.70
2017-10-16T22:59:57.432Z,11.70
2017-10-16T23:02:25.288Z,11.60
2017-10-16T23:04:53.011Z,11.60
2017-10-16T23:07:20.751Z,11.60
2017-10-16T23:09:48.601Z,11.50
2017-10-16T23:12:16.396Z,11.50
2017-10-16T23:14:44.246Z,11.50
2017-10-16T23:17:12.028Z,11.50
2017-10-16T23:19:40.259Z,11.30
2017-10-16T23:22:08.000Z,11.30
2017-10-16T23:24:35.849Z,11.30
2017-10-16T23:27:03.568Z,11.30
2017-10-16T23:29:31.302Z,11.10
2017-10-16T23:31:59.092Z,11.00
2017-10-16T23:34:26.789Z,10.90
2017-10-16T23:36:54.550Z,10.80
2017-10-16T23:39:22.442Z,10.70
2017-10-16T23:41:50.170Z,10.60
2017-10-16T23:44:17.892Z,10.60
2017-10-16T23:46:45.658Z,10.60
2017-10-16T23:49:13.425Z,10.70
2017-10-16T23:51:41.143Z,10.90
2017-10-16T23:54:08.924Z,10.90
2017-10-16T23:56:36.643Z,10.80
2017-10-16T23:59:04.413Z,10.80
